Sewaren, New Jersey
Current Conditions -  °F | °C
As of 4:55 PM on Wednesday 17 Dec 2014 (Local Time) from KLDJ Reporting Station
Overcast Overcast  
Wind Chill: 53°   Ceiling: 4500
Heat Index: 53°   Visibility: 10mi
Dew Point: 38°   Wind: 14mph
Humidity: 56%   Direction: 300°WNW
Pressure: 29.88"   Gusts: 22mph
Location:  40.55°N, 74.26°W
Report Text: KLDJ 172155Z AUTO 30012G19KT 10SM SCT040 OVC045 12/03 A2988 RMK AO2 T01150031
Loading
Personal Weather Stations






























Interactive Weather Map New forecast layout! Learn more

10-Day Weather Forecast

Advertisements
Track Severe Weather on mobile